sensor_id;sensor_type;location;lat;lon;timestamp;P1;durP1;ratioP1;P2;durP2;ratioP2
3155;SDS011;1588;50.892;7.082;2024-01-06T00:00:31;5.07;;;3.13;;
3155;SDS011;1588;50.892;7.082;2024-01-06T00:05:33;5.70;;;3.40;;
3155;SDS011;1588;50.892;7.082;2024-01-06T00:10:37;7.97;;;3.70;;
3155;SDS011;1588;50.892;7.082;2024-01-06T00:15:39;5.03;;;3.03;;
3155;SDS011;1588;50.892;7.082;2024-01-06T00:20:41;7.90;;;3.03;;
3155;SDS011;1588;50.892;7.082;2024-01-06T00:26:05;6.03;;;3.33;;
3155;SDS011;1588;50.892;7.082;2024-01-06T00:31:09;5.40;;;3.30;;
3155;SDS011;1588;50.892;7.082;2024-01-06T00:36:17;4.17;;;3.07;;
3155;SDS011;1588;50.892;7.082;2024-01-06T00:41:21;7.07;;;3.53;;
3155;SDS011;1588;50.892;7.082;2024-01-06T00:46:23;4.00;;;3.00;;
3155;SDS011;1588;50.892;7.082;2024-01-06T00:51:25;9.77;;;4.40;;
3155;SDS011;1588;50.892;7.082;2024-01-06T00:56:30;5.57;;;3.57;;
3155;SDS011;1588;50.892;7.082;2024-01-06T01:01:32;9.30;;;4.47;;
3155;SDS011;1588;50.892;7.082;2024-01-06T01:06:36;8.33;;;3.73;;
3155;SDS011;1588;50.892;7.082;2024-01-06T01:11:40;7.70;;;4.60;;
3155;SDS011;1588;50.892;7.082;2024-01-06T01:16:43;7.87;;;4.20;;
3155;SDS011;1588;50.892;7.082;2024-01-06T01:21:45;8.10;;;4.33;;
3155;SDS011;1588;50.892;7.082;2024-01-06T01:26:49;8.80;;;4.40;;
3155;SDS011;1588;50.892;7.082;2024-01-06T01:31:51;6.87;;;3.60;;
3155;SDS011;1588;50.892;7.082;2024-01-06T01:36:56;13.03;;;4.13;;
3155;SDS011;1588;50.892;7.082;2024-01-06T01:42:03;11.50;;;5.07;;
3155;SDS011;1588;50.892;7.082;2024-01-06T01:47:05;11.03;;;5.00;;
3155;SDS011;1588;50.892;7.082;2024-01-06T01:52:12;11.30;;;5.70;;
3155;SDS011;1588;50.892;7.082;2024-01-06T01:57:16;16.10;;;5.40;;
3155;SDS011;1588;50.892;7.082;2024-01-06T02:02:22;12.27;;;5.50;;
3155;SDS011;1588;50.892;7.082;2024-01-06T02:07:28;14.63;;;6.37;;
3155;SDS011;1588;50.892;7.082;2024-01-06T02:12:37;11.33;;;5.80;;
3155;SDS011;1588;50.892;7.082;2024-01-06T02:17:40;11.97;;;5.80;;
3155;SDS011;1588;50.892;7.082;2024-01-06T02:22:44;11.83;;;5.77;;
3155;SDS011;1588;50.892;7.082;2024-01-06T02:27:47;12.37;;;5.70;;
3155;SDS011;1588;50.892;7.082;2024-01-06T02:32:49;10.00;;;5.40;;
3155;SDS011;1588;50.892;7.082;2024-01-06T02:37:53;24.23;;;6.73;;
3155;SDS011;1588;50.892;7.082;2024-01-06T02:42:55;15.97;;;5.93;;
3155;SDS011;1588;50.892;7.082;2024-01-06T02:47:57;13.70;;;5.93;;
3155;SDS011;1588;50.892;7.082;2024-01-06T02:53:01;11.80;;;6.30;;
3155;SDS011;1588;50.892;7.082;2024-01-06T02:58:04;13.50;;;5.67;;
3155;SDS011;1588;50.892;7.082;2024-01-06T03:03:07;17.40;;;7.03;;
3155;SDS011;1588;50.892;7.082;2024-01-06T03:08:10;16.57;;;7.03;;
3155;SDS011;1588;50.892;7.082;2024-01-06T03:13:13;19.57;;;7.77;;
3155;SDS011;1588;50.892;7.082;2024-01-06T03:18:15;16.87;;;7.73;;
3155;SDS011;1588;50.892;7.082;2024-01-06T03:23:18;18.03;;;7.67;;
3155;SDS011;1588;50.892;7.082;2024-01-06T03:28:21;20.57;;;8.23;;
3155;SDS011;1588;50.892;7.082;2024-01-06T03:33:23;23.67;;;8.17;;
3155;SDS011;1588;50.892;7.082;2024-01-06T03:38:27;22.60;;;8.40;;
3155;SDS011;1588;50.892;7.082;2024-01-06T03:43:29;22.73;;;9.47;;
3155;SDS011;1588;50.892;7.082;2024-01-06T03:48:32;25.80;;;9.47;;
3155;SDS011;1588;50.892;7.082;2024-01-06T03:53:36;18.80;;;9.10;;
3155;SDS011;1588;50.892;7.082;2024-01-06T03:58:41;26.03;;;8.77;;
3155;SDS011;1588;50.892;7.082;2024-01-06T04:03:43;27.83;;;8.30;;
3155;SDS011;1588;50.892;7.082;2024-01-06T04:08:47;22.80;;;8.93;;
3155;SDS011;1588;50.892;7.082;2024-01-06T04:13:49;27.43;;;10.97;;
3155;SDS011;1588;50.892;7.082;2024-01-06T04:18:51;21.77;;;8.90;;
3155;SDS011;1588;50.892;7.082;2024-01-06T04:23:57;25.67;;;9.60;;
3155;SDS011;1588;50.892;7.082;2024-01-06T04:29:18;27.03;;;10.20;;
3155;SDS011;1588;50.892;7.082;2024-01-06T04:34:21;31.40;;;9.50;;
3155;SDS011;1588;50.892;7.082;2024-01-06T04:39:24;39.53;;;9.80;;
3155;SDS011;1588;50.892;7.082;2024-01-06T04:44:27;31.97;;;10.57;;
3155;SDS011;1588;50.892;7.082;2024-01-06T04:49:29;30.57;;;10.40;;
3155;SDS011;1588;50.892;7.082;2024-01-06T04:54:36;27.43;;;10.37;;
3155;SDS011;1588;50.892;7.082;2024-01-06T04:59:38;25.27;;;11.00;;
3155;SDS011;1588;50.892;7.082;2024-01-06T05:04:40;34.50;;;11.80;;
3155;SDS011;1588;50.892;7.082;2024-01-06T05:09:44;36.33;;;13.30;;
3155;SDS011;1588;50.892;7.082;2024-01-06T05:14:46;31.80;;;12.00;;
3155;SDS011;1588;50.892;7.082;2024-01-06T05:19:49;37.63;;;13.13;;
3155;SDS011;1588;50.892;7.082;2024-01-06T05:24:52;35.93;;;13.07;;
3155;SDS011;1588;50.892;7.082;2024-01-06T05:29:55;35.57;;;14.07;;
3155;SDS011;1588;50.892;7.082;2024-01-06T05:35:02;40.17;;;14.10;;
3155;SDS011;1588;50.892;7.082;2024-01-06T05:40:08;33.93;;;12.63;;
3155;SDS011;1588;50.892;7.082;2024-01-06T05:45:12;39.87;;;13.57;;
3155;SDS011;1588;50.892;7.082;2024-01-06T05:50:29;38.53;;;14.10;;
3155;SDS011;1588;50.892;7.082;2024-01-06T05:55:37;45.90;;;14.13;;
3155;SDS011;1588;50.892;7.082;2024-01-06T06:00:45;42.47;;;16.07;;
3155;SDS011;1588;50.892;7.082;2024-01-06T06:05:48;38.70;;;14.60;;
3155;SDS011;1588;50.892;7.082;2024-01-06T06:10:56;42.40;;;13.63;;
3155;SDS011;1588;50.892;7.082;2024-01-06T06:16:10;43.33;;;14.60;;
3155;SDS011;1588;50.892;7.082;2024-01-06T06:21:16;38.73;;;12.67;;
3155;SDS011;1588;50.892;7.082;2024-01-06T06:26:20;38.03;;;12.60;;
3155;SDS011;1588;50.892;7.082;2024-01-06T06:31:22;36.23;;;10.80;;
3155;SDS011;1588;50.892;7.082;2024-01-06T06:36:25;37.80;;;11.20;;
3155;SDS011;1588;50.892;7.082;2024-01-06T06:41:30;32.20;;;9.30;;
3155;SDS011;1588;50.892;7.082;2024-01-06T06:46:32;37.27;;;10.70;;
3155;SDS011;1588;50.892;7.082;2024-01-06T06:51:35;28.43;;;9.50;;
3155;SDS011;1588;50.892;7.082;2024-01-06T06:56:44;28.13;;;10.10;;
3155;SDS011;1588;50.892;7.082;2024-01-06T07:02:01;23.47;;;9.23;;
3155;SDS011;1588;50.892;7.082;2024-01-06T07:07:04;20.77;;;8.07;;
3155;SDS011;1588;50.892;7.082;2024-01-06T07:12:28;25.80;;;8.60;;
3155;SDS011;1588;50.892;7.082;2024-01-06T07:17:30;23.83;;;8.87;;
3155;SDS011;1588;50.892;7.082;2024-01-06T07:22:33;21.27;;;8.77;;
3155;SDS011;1588;50.892;7.082;2024-01-06T07:27:38;32.40;;;10.00;;
3155;SDS011;1588;50.892;7.082;2024-01-06T07:32:40;34.37;;;10.37;;
3155;SDS011;1588;50.892;7.082;2024-01-06T07:37:48;32.63;;;10.90;;
3155;SDS011;1588;50.892;7.082;2024-01-06T07:43:11;29.83;;;10.27;;
3155;SDS011;1588;50.892;7.082;2024-01-06T07:48:15;28.07;;;9.80;;
3155;SDS011;1588;50.892;7.082;2024-01-06T07:53:18;25.67;;;7.93;;
3155;SDS011;1588;50.892;7.082;2024-01-06T07:58:22;26.90;;;9.77;;
3155;SDS011;1588;50.892;7.082;2024-01-06T08:03:24;23.87;;;8.20;;
3155;SDS011;1588;50.892;7.082;2024-01-06T08:08:27;32.93;;;9.20;;
3155;SDS011;1588;50.892;7.082;2024-01-06T08:13:31;26.70;;;8.57;;
3155;SDS011;1588;50.892;7.082;2024-01-06T08:18:35;22.50;;;7.47;;
3155;SDS011;1588;50.892;7.082;2024-01-06T08:23:46;20.07;;;8.07;;
3155;SDS011;1588;50.892;7.082;2024-01-06T08:28:50;30.90;;;9.43;;
3155;SDS011;1588;50.892;7.082;2024-01-06T08:33:55;35.03;;;9.83;;
3155;SDS011;1588;50.892;7.082;2024-01-06T08:38:58;36.53;;;10.30;;
3155;SDS011;1588;50.892;7.082;2024-01-06T08:44:02;25.07;;;8.00;;
3155;SDS011;1588;50.892;7.082;2024-01-06T08:49:05;27.37;;;8.83;;
3155;SDS011;1588;50.892;7.082;2024-01-06T08:54:07;25.50;;;9.73;;
3155;SDS011;1588;50.892;7.082;2024-01-06T08:59:17;27.40;;;8.93;;
3155;SDS011;1588;50.892;7.082;2024-01-06T09:04:20;21.70;;;7.43;;
3155;SDS011;1588;50.892;7.082;2024-01-06T09:09:31;21.50;;;8.90;;
3155;SDS011;1588;50.892;7.082;2024-01-06T09:14:36;24.40;;;8.50;;
3155;SDS011;1588;50.892;7.082;2024-01-06T09:19:43;18.07;;;7.00;;
3155;SDS011;1588;50.892;7.082;2024-01-06T09:25:19;24.57;;;8.43;;
3155;SDS011;1588;50.892;7.082;2024-01-06T09:30:37;19.33;;;7.03;;
3155;SDS011;1588;50.892;7.082;2024-01-06T09:35:51;21.60;;;7.63;;
3155;SDS011;1588;50.892;7.082;2024-01-06T09:41:00;17.87;;;6.73;;
3155;SDS011;1588;50.892;7.082;2024-01-06T09:46:10;13.40;;;6.30;;
3155;SDS011;1588;50.892;7.082;2024-01-06T09:51:35;17.57;;;6.60;;
3155;SDS011;1588;50.892;7.082;2024-01-06T09:56:47;22.53;;;7.10;;
3155;SDS011;1588;50.892;7.082;2024-01-06T10:02:23;16.37;;;6.20;;
3155;SDS011;1588;50.892;7.082;2024-01-06T10:07:28;17.30;;;6.40;;
3155;SDS011;1588;50.892;7.082;2024-01-06T10:12:31;15.53;;;6.03;;
3155;SDS011;1588;50.892;7.082;2024-01-06T10:17:37;16.83;;;6.33;;
3155;SDS011;1588;50.892;7.082;2024-01-06T10:22:44;24.63;;;7.83;;
3155;SDS011;1588;50.892;7.082;2024-01-06T10:27:55;22.57;;;7.57;;
3155;SDS011;1588;50.892;7.082;2024-01-06T10:33:11;19.97;;;6.90;;
3155;SDS011;1588;50.892;7.082;2024-01-06T10:38:14;17.23;;;6.47;;
3155;SDS011;1588;50.892;7.082;2024-01-06T10:43:38;19.93;;;7.03;;
3155;SDS011;1588;50.892;7.082;2024-01-06T10:54:45;24.57;;;6.30;;
3155;SDS011;1588;50.892;7.082;2024-01-06T10:59:56;13.03;;;5.30;;
3155;SDS011;1588;50.892;7.082;2024-01-06T11:05:00;13.73;;;5.23;;
3155;SDS011;1588;50.892;7.082;2024-01-06T11:10:15;16.90;;;5.93;;
3155;SDS011;1588;50.892;7.082;2024-01-06T11:26:25;22.17;;;6.60;;
3155;SDS011;1588;50.892;7.082;2024-01-06T11:31:28;20.47;;;6.40;;
3155;SDS011;1588;50.892;7.082;2024-01-06T11:36:32;19.30;;;6.27;;
3155;SDS011;1588;50.892;7.082;2024-01-06T11:41:47;20.13;;;6.10;;
3155;SDS011;1588;50.892;7.082;2024-01-06T11:47:01;17.03;;;6.20;;
3155;SDS011;1588;50.892;7.082;2024-01-06T11:52:05;14.17;;;5.23;;
3155;SDS011;1588;50.892;7.082;2024-01-06T11:57:15;15.20;;;6.37;;
3155;SDS011;1588;50.892;7.082;2024-01-06T12:02:20;13.97;;;5.43;;
3155;SDS011;1588;50.892;7.082;2024-01-06T12:07:23;14.10;;;5.50;;
3155;SDS011;1588;50.892;7.082;2024-01-06T12:12:27;14.93;;;5.37;;
3155;SDS011;1588;50.892;7.082;2024-01-06T12:17:30;28.90;;;10.27;;
3155;SDS011;1588;50.892;7.082;2024-01-06T12:22:35;26.87;;;9.33;;
3155;SDS011;1588;50.892;7.082;2024-01-06T12:27:42;30.07;;;9.07;;
3155;SDS011;1588;50.892;7.082;2024-01-06T12:32:48;25.47;;;8.63;;
3155;SDS011;1588;50.892;7.082;2024-01-06T12:37:52;24.00;;;8.40;;
3155;SDS011;1588;50.892;7.082;2024-01-06T12:42:59;26.73;;;8.97;;
3155;SDS011;1588;50.892;7.082;2024-01-06T12:48:02;27.80;;;9.90;;
3155;SDS011;1588;50.892;7.082;2024-01-06T12:53:07;24.57;;;8.93;;
3155;SDS011;1588;50.892;7.082;2024-01-06T12:58:11;21.93;;;7.27;;
3155;SDS011;1588;50.892;7.082;2024-01-06T13:03:13;28.70;;;8.37;;
3155;SDS011;1588;50.892;7.082;2024-01-06T13:08:15;31.97;;;12.07;;
3155;SDS011;1588;50.892;7.082;2024-01-06T13:13:23;24.80;;;9.50;;
3155;SDS011;1588;50.892;7.082;2024-01-06T13:18:26;34.90;;;13.87;;
3155;SDS011;1588;50.892;7.082;2024-01-06T13:23:28;53.33;;;20.17;;
3155;SDS011;1588;50.892;7.082;2024-01-06T13:28:33;33.30;;;11.07;;
3155;SDS011;1588;50.892;7.082;2024-01-06T13:33:37;31.93;;;11.57;;
3155;SDS011;1588;50.892;7.082;2024-01-06T13:38:39;30.83;;;10.57;;
3155;SDS011;1588;50.892;7.082;2024-01-06T13:43:46;29.20;;;9.67;;
3155;SDS011;1588;50.892;7.082;2024-01-06T13:48:48;24.87;;;8.30;;
3155;SDS011;1588;50.892;7.082;2024-01-06T13:53:56;35.57;;;8.03;;
3155;SDS011;1588;50.892;7.082;2024-01-06T13:59:07;28.43;;;9.80;;
3155;SDS011;1588;50.892;7.082;2024-01-06T14:04:13;24.63;;;8.20;;
3155;SDS011;1588;50.892;7.082;2024-01-06T14:09:19;28.07;;;8.40;;
3155;SDS011;1588;50.892;7.082;2024-01-06T14:14:23;34.77;;;10.03;;
3155;SDS011;1588;50.892;7.082;2024-01-06T14:19:27;26.53;;;8.70;;
3155;SDS011;1588;50.892;7.082;2024-01-06T14:24:35;30.30;;;10.00;;
3155;SDS011;1588;50.892;7.082;2024-01-06T14:29:42;29.03;;;9.73;;
3155;SDS011;1588;50.892;7.082;2024-01-06T14:34:44;31.43;;;10.20;;
3155;SDS011;1588;50.892;7.082;2024-01-06T14:39:50;38.43;;;11.80;;
3155;SDS011;1588;50.892;7.082;2024-01-06T14:44:54;39.53;;;10.67;;
3155;SDS011;1588;50.892;7.082;2024-01-06T14:55:12;41.93;;;11.70;;
3155;SDS011;1588;50.892;7.082;2024-01-06T15:00:41;50.87;;;14.20;;
3155;SDS011;1588;50.892;7.082;2024-01-06T15:05:43;42.60;;;11.87;;
3155;SDS011;1588;50.892;7.082;2024-01-06T15:10:46;41.23;;;14.60;;
3155;SDS011;1588;50.892;7.082;2024-01-06T15:15:49;53.93;;;15.83;;
3155;SDS011;1588;50.892;7.082;2024-01-06T15:20:52;56.63;;;17.67;;
3155;SDS011;1588;50.892;7.082;2024-01-06T15:25:55;63.33;;;17.60;;
3155;SDS011;1588;50.892;7.082;2024-01-06T15:30:58;55.67;;;18.77;;
3155;SDS011;1588;50.892;7.082;2024-01-06T15:36:01;70.23;;;18.50;;
3155;SDS011;1588;50.892;7.082;2024-01-06T15:41:05;60.97;;;16.50;;
3155;SDS011;1588;50.892;7.082;2024-01-06T15:46:09;44.03;;;16.23;;
3155;SDS011;1588;50.892;7.082;2024-01-06T15:51:12;58.50;;;16.60;;
3155;SDS011;1588;50.892;7.082;2024-01-06T15:56:14;52.60;;;15.07;;
3155;SDS011;1588;50.892;7.082;2024-01-06T16:01:18;57.10;;;14.10;;
3155;SDS011;1588;50.892;7.082;2024-01-06T16:06:32;46.47;;;14.40;;
3155;SDS011;1588;50.892;7.082;2024-01-06T16:11:35;40.83;;;12.90;;
3155;SDS011;1588;50.892;7.082;2024-01-06T16:16:39;55.00;;;14.70;;
3155;SDS011;1588;50.892;7.082;2024-01-06T16:21:41;48.10;;;13.20;;
3155;SDS011;1588;50.892;7.082;2024-01-06T16:26:44;49.50;;;14.30;;
3155;SDS011;1588;50.892;7.082;2024-01-06T16:31:48;53.10;;;16.73;;
3155;SDS011;1588;50.892;7.082;2024-01-06T16:36:50;54.03;;;15.73;;
3155;SDS011;1588;50.892;7.082;2024-01-06T16:41:52;33.80;;;11.47;;
3155;SDS011;1588;50.892;7.082;2024-01-06T16:46:59;40.33;;;13.57;;
3155;SDS011;1588;50.892;7.082;2024-01-06T16:52:02;37.47;;;12.33;;
3155;SDS011;1588;50.892;7.082;2024-01-06T16:57:04;25.20;;;10.43;;
3155;SDS011;1588;50.892;7.082;2024-01-06T17:02:08;24.73;;;9.30;;
3155;SDS011;1588;50.892;7.082;2024-01-06T17:07:10;24.53;;;9.17;;
3155;SDS011;1588;50.892;7.082;2024-01-06T17:12:13;25.27;;;8.93;;
3155;SDS011;1588;50.892;7.082;2024-01-06T17:17:16;23.33;;;8.43;;
3155;SDS011;1588;50.892;7.082;2024-01-06T17:22:19;26.53;;;8.93;;
3155;SDS011;1588;50.892;7.082;2024-01-06T17:27:21;28.40;;;10.10;;
3155;SDS011;1588;50.892;7.082;2024-01-06T17:32:27;45.50;;;13.47;;
3155;SDS011;1588;50.892;7.082;2024-01-06T17:37:29;30.73;;;11.40;;
3155;SDS011;1588;50.892;7.082;2024-01-06T17:42:31;39.90;;;12.57;;
3155;SDS011;1588;50.892;7.082;2024-01-06T17:47:36;33.60;;;12.27;;
3155;SDS011;1588;50.892;7.082;2024-01-06T17:52:43;29.70;;;9.73;;
3155;SDS011;1588;50.892;7.082;2024-01-06T17:57:46;33.77;;;10.70;;
3155;SDS011;1588;50.892;7.082;2024-01-06T18:02:49;31.20;;;10.90;;
3155;SDS011;1588;50.892;7.082;2024-01-06T18:07:52;39.80;;;14.90;;
3155;SDS011;1588;50.892;7.082;2024-01-06T18:12:54;37.30;;;11.13;;
3155;SDS011;1588;50.892;7.082;2024-01-06T18:17:58;35.87;;;11.83;;
3155;SDS011;1588;50.892;7.082;2024-01-06T18:23:03;27.20;;;9.57;;
3155;SDS011;1588;50.892;7.082;2024-01-06T18:28:06;24.37;;;9.40;;
3155;SDS011;1588;50.892;7.082;2024-01-06T18:33:09;20.47;;;8.30;;
3155;SDS011;1588;50.892;7.082;2024-01-06T18:38:11;23.60;;;9.20;;
3155;SDS011;1588;50.892;7.082;2024-01-06T18:43:14;30.57;;;10.57;;
3155;SDS011;1588;50.892;7.082;2024-01-06T18:48:17;28.80;;;10.80;;
3155;SDS011;1588;50.892;7.082;2024-01-06T18:53:20;28.97;;;11.50;;
3155;SDS011;1588;50.892;7.082;2024-01-06T18:58:22;26.73;;;10.60;;
3155;SDS011;1588;50.892;7.082;2024-01-06T19:03:26;31.90;;;12.47;;
3155;SDS011;1588;50.892;7.082;2024-01-06T19:08:28;22.83;;;9.37;;
3155;SDS011;1588;50.892;7.082;2024-01-06T19:13:31;24.73;;;10.50;;
3155;SDS011;1588;50.892;7.082;2024-01-06T19:18:35;35.00;;;12.20;;
3155;SDS011;1588;50.892;7.082;2024-01-06T19:23:38;28.90;;;10.87;;
3155;SDS011;1588;50.892;7.082;2024-01-06T19:28:40;46.03;;;15.90;;
3155;SDS011;1588;50.892;7.082;2024-01-06T19:33:44;38.57;;;15.50;;
3155;SDS011;1588;50.892;7.082;2024-01-06T19:38:47;34.20;;;12.17;;
3155;SDS011;1588;50.892;7.082;2024-01-06T19:43:49;34.90;;;12.50;;
3155;SDS011;1588;50.892;7.082;2024-01-06T19:48:53;30.40;;;11.10;;
3155;SDS011;1588;50.892;7.082;2024-01-06T19:53:56;35.33;;;12.73;;
3155;SDS011;1588;50.892;7.082;2024-01-06T19:58:58;35.43;;;11.33;;
3155;SDS011;1588;50.892;7.082;2024-01-06T20:04:03;34.17;;;13.00;;
3155;SDS011;1588;50.892;7.082;2024-01-06T20:09:07;44.73;;;13.80;;
3155;SDS011;1588;50.892;7.082;2024-01-06T20:14:10;35.90;;;12.03;;
3155;SDS011;1588;50.892;7.082;2024-01-06T20:19:14;44.47;;;14.30;;
3155;SDS011;1588;50.892;7.082;2024-01-06T20:24:16;38.53;;;14.60;;
3155;SDS011;1588;50.892;7.082;2024-01-06T20:29:19;33.57;;;12.00;;
3155;SDS011;1588;50.892;7.082;2024-01-06T20:34:45;36.73;;;13.07;;
3155;SDS011;1588;50.892;7.082;2024-01-06T20:39:48;29.23;;;12.77;;
3155;SDS011;1588;50.892;7.082;2024-01-06T20:44:52;43.50;;;13.70;;
3155;SDS011;1588;50.892;7.082;2024-01-06T20:49:57;36.30;;;12.23;;
3155;SDS011;1588;50.892;7.082;2024-01-06T20:55:05;43.07;;;14.10;;
3155;SDS011;1588;50.892;7.082;2024-01-06T21:00:08;30.07;;;11.17;;
3155;SDS011;1588;50.892;7.082;2024-01-06T21:05:15;34.07;;;12.63;;
3155;SDS011;1588;50.892;7.082;2024-01-06T21:10:20;28.37;;;10.50;;
3155;SDS011;1588;50.892;7.082;2024-01-06T21:15:23;32.30;;;12.50;;
3155;SDS011;1588;50.892;7.082;2024-01-06T21:20:27;29.77;;;11.20;;
3155;SDS011;1588;50.892;7.082;2024-01-06T21:25:30;43.73;;;13.40;;
3155;SDS011;1588;50.892;7.082;2024-01-06T21:30:33;30.10;;;11.80;;
3155;SDS011;1588;50.892;7.082;2024-01-06T21:35:37;36.40;;;13.13;;
3155;SDS011;1588;50.892;7.082;2024-01-06T21:40:39;38.03;;;13.53;;
3155;SDS011;1588;50.892;7.082;2024-01-06T21:45:44;44.90;;;14.17;;
3155;SDS011;1588;50.892;7.082;2024-01-06T21:50:57;36.30;;;13.87;;
3155;SDS011;1588;50.892;7.082;2024-01-06T21:56:00;41.87;;;13.33;;
3155;SDS011;1588;50.892;7.082;2024-01-06T22:01:03;44.07;;;14.33;;
3155;SDS011;1588;50.892;7.082;2024-01-06T22:06:07;46.90;;;14.17;;
3155;SDS011;1588;50.892;7.082;2024-01-06T22:11:10;39.53;;;14.37;;
3155;SDS011;1588;50.892;7.082;2024-01-06T22:16:12;36.00;;;13.03;;
3155;SDS011;1588;50.892;7.082;2024-01-06T22:21:17;47.03;;;14.83;;
3155;SDS011;1588;50.892;7.082;2024-01-06T22:26:20;35.73;;;12.57;;
3155;SDS011;1588;50.892;7.082;2024-01-06T22:31:22;47.73;;;13.20;;
3155;SDS011;1588;50.892;7.082;2024-01-06T22:36:26;46.87;;;14.00;;
3155;SDS011;1588;50.892;7.082;2024-01-06T22:41:28;33.00;;;13.43;;
3155;SDS011;1588;50.892;7.082;2024-01-06T22:46:51;42.07;;;13.20;;
3155;SDS011;1588;50.892;7.082;2024-01-06T22:51:55;39.17;;;12.27;;
3155;SDS011;1588;50.892;7.082;2024-01-06T22:57:03;33.47;;;12.70;;
3155;SDS011;1588;50.892;7.082;2024-01-06T23:02:06;40.60;;;12.67;;
3155;SDS011;1588;50.892;7.082;2024-01-06T23:07:10;34.43;;;10.80;;
3155;SDS011;1588;50.892;7.082;2024-01-06T23:12:12;29.07;;;10.50;;
3155;SDS011;1588;50.892;7.082;2024-01-06T23:17:15;29.70;;;10.30;;
3155;SDS011;1588;50.892;7.082;2024-01-06T23:22:19;30.73;;;11.03;;
3155;SDS011;1588;50.892;7.082;2024-01-06T23:27:21;34.43;;;10.40;;
3155;SDS011;1588;50.892;7.082;2024-01-06T23:32:24;34.73;;;10.90;;
3155;SDS011;1588;50.892;7.082;2024-01-06T23:37:27;26.10;;;9.53;;
3155;SDS011;1588;50.892;7.082;2024-01-06T23:42:30;30.10;;;10.70;;
3155;SDS011;1588;50.892;7.082;2024-01-06T23:47:32;32.47;;;11.87;;
3155;SDS011;1588;50.892;7.082;2024-01-06T23:52:36;32.30;;;11.23;;
3155;SDS011;1588;50.892;7.082;2024-01-06T23:57:38;36.67;;;12.20;;
